Time;durP1;ratioP1;P1;durP2;ratioP2;P2;SDS_P1;SDS_P2;PMS_P1;PMS_P2;Temp;Humidity;BMP_temperature;BMP_pressure;BME280_temperature;BME280_humidity;BME280_pressure;Samples;Min_cycle;Max_cycle;Signal;HPM_P1;HPM_P2
2021/03/09 00:06:46;;;;;;;1999.90;999.90;;;;;;;1.51;50.88;101775.72;15747563;28;20275;-51
2021/03/09 00:14:19;;;;;;;1999.90;999.90;;;;;;;1.55;51.47;101767.78;15721951;28;20044;-53
2021/03/09 00:21:50;;;;;;;1999.90;999.90;;;;;;;1.24;52.09;101766.38;15775501;28;20044;-51
2021/03/09 00:29:23;;;;;;;1999.90;999.90;;;;;;;1.50;51.72;101768.53;15785711;28;20446;-52
2021/03/09 00:36:54;;;;;;;1999.90;999.90;;;;;;;1.12;51.81;101760.94;15770014;28;20048;-51
2021/03/09 00:44:26;;;;;;;1999.90;999.90;;;;;;;0.49;53.40;101770.03;15758724;28;20554;-52
2021/03/09 00:51:58;;;;;;;1999.90;999.90;;;;;;;0.84;53.26;101765.34;15735481;28;20064;-55
2021/03/09 00:59:30;;;;;;;1999.90;999.90;;;;;;;0.84;52.95;101750.75;15770870;28;20063;-51
2021/03/09 01:07:02;;;;;;;1999.90;999.90;;;;;;;0.92;53.20;101735.78;15768672;28;20048;-52
2021/03/09 01:14:34;;;;;;;1999.90;999.90;;;;;;;0.73;54.46;101735.09;15756591;28;20048;-52
2021/03/09 01:22:05;;;;;;;1999.90;999.90;;;;;;;0.70;53.26;101724.63;15756112;28;20040;-58
2021/03/09 01:29:38;;;;;;;1999.90;999.90;;;;;;;0.93;52.51;101720.94;15782378;28;20047;-56
2021/03/09 01:37:09;;;;;;;1999.90;999.90;;;;;;;0.63;52.91;101716.53;15773739;28;20036;-55
2021/03/09 01:44:41;;;;;;;1999.90;999.90;;;;;;;-0.03;55.39;101706.78;15770512;28;20122;-57
2021/03/09 01:52:13;;;;;;;1999.90;999.90;;;;;;;0.60;54.69;101694.19;15768484;28;20052;-54
2021/03/09 01:59:47;;;;;;;1999.90;999.90;;;;;;;0.32;54.35;101695.81;15766025;28;20458;-57
2021/03/09 02:07:18;;;;;;;1999.90;999.90;;;;;;;0.42;55.72;101678.72;15776485;28;20215;-51
2021/03/09 02:15:02;;;;;;;1999.90;999.90;;;;;;;0.28;55.19;101680.88;15772833;28;20044;-51
2021/03/09 02:22:56;;;;;;;1999.90;999.90;;;;;;;0.01;56.11;101679.72;15749198;28;20052;-54
2021/03/09 02:30:32;;;;;;;1999.90;999.90;;;;;;;0.04;55.55;101674.59;15723830;28;20408;-56
2021/03/09 02:38:08;;;;;;;1999.90;999.90;;;;;;;-0.25;56.92;101675.53;15764429;28;20232;-53
2021/03/09 02:45:42;;;;;;;1999.90;999.90;;;;;;;-0.16;57.60;101663.97;15772336;28;20036;-56
2021/03/09 02:53:15;;;;;;;1999.90;999.90;;;;;;;-0.33;57.46;101655.59;15771816;28;20062;-54
2021/03/09 03:00:52;;;;;;;1999.90;999.90;;;;;;;-0.15;56.96;101656.56;15766758;28;20469;-53
2021/03/09 03:08:24;;;;;;;1999.90;999.90;;;;;;;-0.50;57.55;101651.09;15770252;28;20040;-55
2021/03/09 03:15:59;;;;;;;1999.90;999.90;;;;;;;-0.45;57.14;101653.94;15755936;28;20438;-55
2021/03/09 03:23:31;;;;;;;1999.90;999.90;;;;;;;-0.53;57.36;101644.16;15768740;28;20139;-55
2021/03/09 03:31:06;;;;;;;1999.90;999.90;;;;;;;-0.53;57.73;101644.16;15748029;28;20117;-58
2021/03/09 03:38:40;;;;;;;1999.90;999.90;;;;;;;-0.66;57.45;101636.16;15757974;28;20131;-57
2021/03/09 03:46:12;;;;;;;;;;;;;;;-0.50;57.49;101640.13;15759010;28;20325;-52
2021/03/09 03:53:54;;;;;;;1999.90;999.90;;;;;;;-0.50;57.78;101635.47;15772674;23;19970;-65
2021/03/09 04:01:28;;;;;;;1999.90;999.90;;;;;;;-0.41;57.84;101635.97;15775569;28;20066;-66
2021/03/09 04:09:02;;;;;;;;;;;;;;;-0.63;58.32;101624.72;15764749;28;20055;-64
2021/03/09 04:16:36;;;;;;;1999.90;999.90;;;;;;;-0.70;58.57;101619.34;15763448;28;20175;-65
2021/03/09 04:24:10;;;;;;;1999.90;999.90;;;;;;;-0.54;58.04;101620.53;15755113;28;20106;-66
2021/03/09 04:31:42;;;;;;;1999.90;999.90;;;;;;;-0.50;59.16;101618.19;15777078;28;20071;-63
2021/03/09 04:39:14;;;;;;;1999.90;999.90;;;;;;;-0.52;58.20;101612.94;15788121;28;20465;-64
2021/03/09 04:46:47;;;;;;;1999.90;999.90;;;;;;;-0.81;58.75;101608.38;15768588;28;20033;-64
2021/03/09 04:54:19;;;;;;;1999.90;999.90;;;;;;;-0.70;58.17;101610.28;15754237;28;20544;-64
2021/03/09 05:01:52;;;;;;;1999.90;999.90;;;;;;;-0.33;58.35;101610.91;15758238;28;20131;-65
2021/03/09 05:09:23;;;;;;;1999.90;999.90;;;;;;;-0.50;58.50;101599.00;15752096;28;20040;-65
2021/03/09 05:16:56;;;;;;;1999.90;999.90;;;;;;;-0.74;58.01;101588.00;15755330;28;20559;-66
2021/03/09 05:24:29;;;;;;;1999.90;999.90;;;;;;;-0.67;58.28;101588.72;15767631;28;20102;-65
2021/03/09 05:32:02;;;;;;;1999.90;999.90;;;;;;;-0.71;58.63;101598.50;15780082;28;20418;-64
2021/03/09 05:39:38;;;;;;;1999.90;999.90;;;;;;;-0.83;58.66;101592.16;15758382;28;20190;-64
2021/03/09 05:47:11;;;;;;;1999.90;999.90;;;;;;;-0.79;59.29;101601.59;15778643;28;20044;-64
2021/03/09 05:54:42;;;;;;;1999.90;999.90;;;;;;;-0.73;59.13;101591.56;15768875;28;20072;-65
2021/03/09 06:02:15;;;;;;;1999.90;999.90;;;;;;;-0.55;59.50;101607.06;15759999;28;20093;-65
2021/03/09 06:09:47;;;;;;;1999.90;999.90;;;;;;;-0.41;58.67;101600.31;15770476;28;20032;-66
2021/03/09 06:17:24;;;;;;;1999.90;999.90;;;;;;;0.19;56.43;101599.97;15764795;28;20315;-64
2021/03/09 06:25:04;;;;;;;1999.90;999.90;;;;;;;0.09;57.61;101600.59;15771414;28;20052;-64
2021/03/09 06:32:41;;;;;;;1999.90;999.90;;;;;;;0.19;57.00;101600.81;15740299;28;20079;-66
2021/03/09 06:40:13;;;;;;;1999.90;999.90;;;;;;;0.58;55.91;101603.78;15762285;28;20052;-65
2021/03/09 06:47:47;;;;;;;1999.90;999.90;;;;;;;0.60;55.52;101607.13;15762029;28;20035;-64
2021/03/09 06:55:27;;;;;;;1999.90;999.90;;;;;;;0.62;56.15;101620.59;15748111;28;20501;-63
2021/03/09 07:03:00;;;;;;;1999.90;999.90;;;;;;;1.60;53.05;101622.91;15727875;28;20135;-64
2021/03/09 07:10:31;;;;;;;1999.90;999.90;;;;;;;2.75;51.32;101629.41;15745577;28;20080;-64
2021/03/09 07:18:05;;;;;;;1999.90;999.90;;;;;;;3.16;49.63;101633.41;15745246;28;20048;-63
2021/03/09 07:25:38;;;;;;;;;;;;;;;2.80;49.10;101618.41;15726589;28;20056;-64
2021/03/09 07:33:11;;;;;;;1999.90;999.90;;;;;;;2.44;50.58;101624.63;15745142;28;20380;-66
2021/03/09 07:40:43;;;;;;;1999.90;999.90;;;;;;;3.01;48.98;101616.69;15724612;28;20045;-66
2021/03/09 07:48:19;;;;;;;1999.90;999.90;;;;;;;3.68;48.03;101623.63;15744457;28;20049;-65
2021/03/09 07:56:13;;;;;;;1999.90;999.90;;;;;;;3.43;48.46;101622.31;15726388;28;20110;-63
2021/03/09 08:03:45;;;;;;;1999.90;999.90;;;;;;;3.72;47.89;101616.47;15724677;28;20044;-65
2021/03/09 08:11:37;;;;;;;1999.90;999.90;;;;;;;5.28;44.57;101609.03;15741642;28;20079;-65
2021/03/09 08:19:14;;;;;;;1999.90;999.90;;;;;;;5.29;44.22;101605.16;15741049;28;20045;-66
2021/03/09 08:26:53;;;;;;;1999.90;999.90;;;;;;;5.87;43.57;101600.16;15717978;28;20123;-64
2021/03/09 08:34:25;;;;;;;1999.90;999.90;;;;;;;5.35;43.40;101603.25;15703170;28;20123;-63
2021/03/09 08:42:04;;;;;;;1999.90;999.90;;;;;;;5.73;42.89;101587.97;15720442;28;20048;-64
2021/03/09 08:49:52;;;;;;;1999.90;999.90;;;;;;;6.43;42.02;101594.44;15720828;28;20479;-66
2021/03/09 08:57:25;;;;;;;1999.90;999.90;;;;;;;6.75;40.44;101582.09;15711427;28;20048;-63
2021/03/09 09:05:01;;;;;;;1999.90;999.90;;;;;;;8.30;40.03;101582.91;15737345;28;20567;-65
2021/03/09 09:12:35;;;;;;;1999.90;999.90;;;;;;;7.89;38.67;101581.72;15737800;28;20044;-63
2021/03/09 09:20:10;;;;;;;1999.90;999.90;;;;;;;9.12;36.83;101571.50;15714816;28;20149;-65
2021/03/09 09:27:45;;;;;;;1999.90;999.90;;;;;;;8.84;36.74;101576.09;15733032;28;20071;-66
2021/03/09 09:35:19;;;;;;;1999.90;999.90;;;;;;;9.29;35.71;101568.19;15742386;28;20103;-66
2021/03/09 09:42:54;;;;;;;;;;;;;;;9.27;36.29;101567.63;15738931;28;20043;-65
2021/03/09 09:50:28;;;;;;;1999.90;999.90;;;;;;;9.90;35.72;101564.31;15703516;28;19990;-66
2021/03/09 09:58:01;;;;;;;1999.90;999.90;;;;;;;9.73;34.95;101564.06;15745484;22;20044;-51
2021/03/09 10:05:33;;;;;;;1999.90;999.90;;;;;;;9.86;33.20;101568.00;15736315;28;20584;-53
2021/03/09 10:13:22;;;;;;;1999.90;999.90;;;;;;;10.07;33.51;101555.31;15741680;28;20052;-49
2021/03/09 10:21:10;;;;;;;1999.90;999.90;;;;;;;10.46;33.44;101554.81;15707629;28;20048;-52
2021/03/09 10:28:41;;;;;;;1999.90;999.90;;;;;;;12.16;30.52;101556.72;15741695;28;20516;-55
2021/03/09 10:36:14;;;;;;;1999.90;999.90;;;;;;;12.98;30.95;101553.13;15741520;28;20044;-57
2021/03/09 10:43:49;;;;;;;1999.90;999.90;;;;;;;15.00;27.58;101553.72;15723043;28;20052;-55
2021/03/09 10:51:21;;;;;;;1999.90;999.90;;;;;;;15.49;26.34;101546.31;15741488;28;20102;-50
2021/03/09 10:58:53;;;;;;;1999.90;999.90;;;;;;;16.06;25.29;101551.19;15752566;28;20052;-52
2021/03/09 11:06:25;;;;;;;1999.90;999.90;;;;;;;16.38;24.20;101545.81;15736089;28;20089;-53
2021/03/09 11:13:57;;;;;;;1999.90;999.90;;;;;;;16.69;23.40;101534.78;15734629;28;20041;-50
2021/03/09 11:21:29;;;;;;;1999.90;999.90;;;;;;;15.55;22.73;101521.63;15735934;28;20105;-52
2021/03/09 11:29:01;;;;;;;1999.90;999.90;;;;;;;13.83;23.62;101516.06;15717816;28;20066;-52
2021/03/09 11:36:33;;;;;;;1999.90;999.90;;;;;;;15.58;22.68;101523.72;15716993;28;20032;-50
2021/03/09 11:44:05;;;;;;;1999.90;999.90;;;;;;;13.32;23.21;101501.03;15735193;28;20048;-49
2021/03/09 11:51:38;;;;;;;1999.90;999.90;;;;;;;12.84;25.00;101502.03;15733171;28;20094;-51
2021/03/09 11:59:09;;;;;;;1999.90;999.90;;;;;;;12.84;24.05;101499.22;15715327;28;20439;-50
2021/03/09 12:06:42;;;;;;;1999.90;999.90;;;;;;;13.37;24.09;101481.22;15715501;28;20071;-55
2021/03/09 12:14:13;;;;;;;1999.90;999.90;;;;;;;14.89;23.38;101474.63;15713695;28;20358;-56
2021/03/09 12:21:45;;;;;;;1999.90;999.90;;;;;;;17.59;20.27;101473.28;15731765;28;20236;-55
2021/03/09 12:29:18;;;;;;;1999.90;999.90;;;;;;;18.22;21.53;101466.81;15728481;28;20050;-52
2021/03/09 12:36:51;;;;;;;1999.90;999.90;;;;;;;20.32;18.60;101462.50;15732063;28;20045;-53
2021/03/09 12:44:22;;;;;;;1999.90;999.90;;;;;;;15.81;22.70;101445.38;15731458;28;20036;-53
2021/03/09 12:51:55;;;;;;;1999.90;999.90;;;;;;;17.73;21.41;101428.56;15725025;28;20074;-55
2021/03/09 12:59:30;;;;;;;1999.90;999.90;;;;;;;15.71;21.47;101426.94;15712551;28;20047;-56
2021/03/09 13:07:03;;;;;;;1999.90;999.90;;;;;;;16.73;20.63;101427.78;15730203;28;20045;-53
2021/03/09 13:14:34;;;;;;;1999.90;999.90;;;;;;;18.48;18.63;101421.03;15729671;28;20127;-56
2021/03/09 13:22:07;;;;;;;1999.90;999.90;;;;;;;20.49;17.11;101413.78;15717016;28;20107;-51
2021/03/09 13:29:39;;;;;;;1999.90;999.90;;;;;;;19.58;18.18;101417.59;15682613;28;20089;-52
2021/03/09 13:37:11;;;;;;;1999.90;999.90;;;;;;;20.62;17.43;101406.69;15692474;28;20539;-51
2021/03/09 13:44:42;;;;;;;1999.90;999.90;;;;;;;16.68;20.06;101405.50;15739357;28;20483;-52
2021/03/09 13:52:15;;;;;;;1999.90;999.90;;;;;;;13.40;24.00;101396.47;15741472;28;20122;-49
2021/03/09 13:59:47;;;;;;;1999.90;999.90;;;;;;;13.00;25.27;101381.88;15695293;28;20524;-50
2021/03/09 14:07:19;;;;;;;1999.90;999.90;;;;;;;12.25;23.93;101378.50;15735140;28;20052;-52
2021/03/09 14:14:53;;;;;;;1999.90;999.90;;;;;;;11.56;24.61;101372.72;15755188;28;20036;-52
2021/03/09 14:22:25;;;;;;;1999.90;999.90;;;;;;;11.09;24.23;101365.97;15737437;28;20507;-56
2021/03/09 14:29:59;;;;;;;1999.90;999.90;;;;;;;11.13;23.66;101353.81;15696263;28;20052;-51
2021/03/09 14:37:31;;;;;;;1999.90;999.90;;;;;;;11.13;24.40;101358.59;15719012;28;20068;-51
2021/03/09 14:45:04;;;;;;;1999.90;999.90;;;;;;;10.48;26.81;101342.44;15731604;28;20191;-53
2021/03/09 14:52:38;;;;;;;1999.90;999.90;;;;;;;10.78;25.23;101347.22;15695382;28;20062;-51
2021/03/09 15:00:12;;;;;;;1999.90;999.90;;;;;;;10.07;25.85;101343.38;15709528;28;20137;-53
2021/03/09 15:07:45;;;;;;;1999.90;999.90;;;;;;;10.24;27.82;101332.41;15682051;28;20118;-53
2021/03/09 15:15:18;;;;;;;1999.90;999.90;;;;;;;10.13;27.89;101339.34;15723695;28;20059;-58
2021/03/09 15:22:51;;;;;;;1999.90;999.90;;;;;;;9.99;29.19;101332.97;15713237;28;20198;-61
2021/03/09 15:30:24;;;;;;;1999.90;999.90;;;;;;;10.02;28.91;101337.94;15739211;28;20052;-52
2021/03/09 15:37:57;;;;;;;1999.90;999.90;;;;;;;9.95;30.14;101337.53;15714228;28;20303;-55
2021/03/09 15:45:29;;;;;;;1999.90;999.90;;;;;;;9.97;29.43;101335.25;15700506;28;20044;-56
2021/03/09 15:53:02;;;;;;;1999.90;999.90;;;;;;;9.89;28.61;101327.63;15710283;23;20051;-73
2021/03/09 16:00:34;;;;;;;1999.90;999.90;;;;;;;9.90;28.82;101327.34;15849506;28;20046;-72
2021/03/09 16:08:07;;;;;;;1999.90;999.90;;;;;;;9.70;29.68;101336.97;15876489;22;20399;-66
2021/03/09 16:15:38;;;;;;;1999.90;999.90;;;;;;;9.28;30.13;101328.97;15824976;28;20044;-66
2021/03/09 16:23:10;;;;;;;1999.90;999.90;;;;;;;9.30;29.39;101333.09;15806861;28;20044;-67
2021/03/09 16:30:42;;;;;;;1999.90;999.90;;;;;;;8.91;30.73;101334.38;15777542;28;20044;-66
2021/03/09 16:38:14;;;;;;;1999.90;999.90;;;;;;;8.81;33.00;101351.28;15829537;28;20131;-68
2021/03/09 16:45:46;;;;;;;1999.90;999.90;;;;;;;8.38;34.91;101350.63;15840816;28;20475;-66
2021/03/09 16:53:18;;;;;;;1999.90;999.90;;;;;;;7.96;36.34;101360.69;15850513;28;20044;-60
2021/03/09 17:00:49;;;;;;;1999.90;999.90;;;;;;;7.55;36.18;101377.06;15830851;28;20047;-68
2021/03/09 17:08:22;;;;;;;1999.90;999.90;;;;;;;7.42;37.70;101380.56;15838326;28;20036;-69
2021/03/09 17:15:53;;;;;;;1999.90;999.90;;;;;;;7.22;38.54;101370.53;15838044;28;20078;-65
2021/03/09 17:23:26;;;;;;;1999.90;999.90;;;;;;;7.01;37.66;101383.78;15825884;28;20040;-65
2021/03/09 17:30:57;;;;;;;1999.90;999.90;;;;;;;6.92;38.69;101410.50;15846188;28;20047;-66
2021/03/09 17:38:32;;;;;;;1999.90;999.90;;;;;;;6.98;39.10;101405.72;15847797;28;20040;-66
2021/03/09 17:46:03;;;;;;;1999.90;999.90;;;;;;;6.94;39.11;101416.59;15832273;28;20047;-67
2021/03/09 17:53:35;;;;;;;1999.90;999.90;;;;;;;6.88;40.74;101412.22;15843066;28;20043;-68
2021/03/09 18:01:07;;;;;;;1999.90;999.90;;;;;;;6.81;41.56;101420.88;15846189;28;20130;-66
2021/03/09 18:08:39;;;;;;;1999.90;999.90;;;;;;;6.63;42.81;101405.78;15828080;28;20048;-63
2021/03/09 18:16:11;;;;;;;1999.90;999.90;;;;;;;6.45;43.40;101414.78;15802421;28;20100;-64
2021/03/09 18:23:44;;;;;;;1999.90;999.90;;;;;;;6.25;43.98;101414.91;15837805;28;20440;-65
2021/03/09 18:31:17;;;;;;;1999.90;999.90;;;;;;;5.85;44.87;101411.25;15843356;28;20080;-65
2021/03/09 18:38:49;;;;;;;1999.90;999.90;;;;;;;5.57;45.37;101414.69;15833194;28;20100;-63
2021/03/09 18:46:21;;;;;;;1999.90;999.90;;;;;;;5.26;46.07;101400.94;15862889;28;20137;-65
2021/03/09 18:53:54;;;;;;;1999.90;999.90;;;;;;;4.92;46.78;101407.09;15817216;28;20513;-65
2021/03/09 19:01:26;;;;;;;1999.90;999.90;;;;;;;4.64;47.33;101414.03;15833641;28;20043;-67
2021/03/09 19:08:59;;;;;;;1999.90;999.90;;;;;;;4.35;47.72;101416.50;15819564;28;20054;-63
2021/03/09 19:16:33;;;;;;;1999.90;999.90;;;;;;;4.17;47.00;101417.03;15854942;28;20040;-64
2021/03/09 19:24:07;;;;;;;1999.90;999.90;;;;;;;4.04;46.61;101412.00;15791124;28;20076;-65
2021/03/09 19:31:39;;;;;;;1999.90;999.90;;;;;;;3.84;47.90;101409.19;15803959;28;20400;-66
2021/03/09 19:39:11;;;;;;;1999.90;999.90;;;;;;;3.58;49.24;101422.09;15833808;28;20047;-65
2021/03/09 19:46:43;;;;;;;1999.90;999.90;;;;;;;3.62;48.19;101423.19;15846044;28;20386;-63
2021/03/09 19:54:35;;;;;;;1999.90;999.90;;;;;;;3.37;49.63;101427.50;15807842;28;20428;-62
2021/03/09 20:02:07;;;;;;;1999.90;999.90;;;;;;;3.30;49.20;101417.78;15822031;28;20081;-66
2021/03/09 20:09:39;;;;;;;1999.90;999.90;;;;;;;3.27;48.91;101426.63;15866907;28;20100;-66
2021/03/09 20:17:11;;;;;;;1999.90;999.90;;;;;;;3.19;49.23;101426.00;15850709;28;20079;-65
2021/03/09 20:24:43;;;;;;;1999.90;999.90;;;;;;;3.12;50.81;101424.56;15837624;28;20047;-62
2021/03/09 20:32:16;;;;;;;1999.90;999.90;;;;;;;3.01;50.82;101420.09;15805854;28;20552;-65
2021/03/09 20:39:48;;;;;;;1999.90;999.90;;;;;;;2.90;51.63;101421.94;15854660;28;20371;-65
2021/03/09 20:47:19;;;;;;;1999.90;999.90;;;;;;;2.75;52.55;101427.38;15861349;28;20381;-62
2021/03/09 20:54:53;;;;;;;1999.90;999.90;;;;;;;2.47;49.64;101431.25;15797519;28;20101;-64
2021/03/09 21:02:25;;;;;;;1999.90;999.90;;;;;;;2.08;51.17;101427.81;15815602;28;20075;-62
2021/03/09 21:09:57;;;;;;;1999.90;999.90;;;;;;;2.66;49.82;101437.19;15845692;28;20441;-64
2021/03/09 21:17:28;;;;;;;1999.90;999.90;;;;;;;2.74;49.45;101426.53;15863486;28;20035;-65
2021/03/09 21:25:01;;;;;;;1999.90;999.90;;;;;;;2.22;49.58;101434.59;15835245;28;20085;-65
2021/03/09 21:32:33;;;;;;;1999.90;999.90;;;;;;;2.39;48.54;101429.78;15802410;28;20048;-63
2021/03/09 21:40:07;;;;;;;1999.90;999.90;;;;;;;2.65;49.02;101424.53;15802229;28;20079;-63
2021/03/09 21:47:39;;;;;;;1999.90;999.90;;;;;;;2.67;48.73;101430.59;15858869;28;20067;-66
2021/03/09 21:55:12;;;;;;;1999.90;999.90;;;;;;;2.66;48.71;101429.75;15806436;28;20040;-62
2021/03/09 22:02:43;;;;;;;1999.90;999.90;;;;;;;2.54;49.14;101429.13;15869662;28;20131;-63
2021/03/09 22:10:15;;;;;;;1999.90;999.90;;;;;;;2.15;48.45;101423.78;15831230;28;20079;-61
2021/03/09 22:17:47;;;;;;;1999.90;999.90;;;;;;;1.96;48.63;101428.81;15833750;28;20036;-61
2021/03/09 22:25:20;;;;;;;1999.90;999.90;;;;;;;2.13;49.25;101431.47;15853892;28;20036;-63
2021/03/09 22:32:51;;;;;;;1999.90;999.90;;;;;;;2.05;48.98;101422.84;15831289;28;20047;-62
2021/03/09 22:40:24;;;;;;;1999.90;999.90;;;;;;;1.43;49.39;101424.88;15855130;28;20412;-61
2021/03/09 22:47:55;;;;;;;1999.90;999.90;;;;;;;1.31;49.56;101424.16;15812141;28;20101;-61
2021/03/09 22:55:28;;;;;;;1999.90;999.90;;;;;;;1.29;49.21;101422.75;15833091;28;20051;-62
2021/03/09 23:02:59;;;;;;;1999.90;999.90;;;;;;;1.22;49.81;101422.94;15837178;28;20040;-61
2021/03/09 23:10:31;;;;;;;1999.90;999.90;;;;;;;1.51;50.38;101431.03;15829800;28;20048;-62
2021/03/09 23:18:04;;;;;;;1999.90;999.90;;;;;;;1.44;49.28;101420.19;15850377;28;20079;-64
2021/03/09 23:25:37;;;;;;;1999.90;999.90;;;;;;;1.48;48.95;101435.13;15845190;28;20487;-61
2021/03/09 23:33:08;;;;;;;1999.90;999.90;;;;;;;1.30;49.58;101436.25;15812657;28;20138;-63
2021/03/09 23:40:42;;;;;;;1999.90;999.90;;;;;;;1.06;51.09;101432.06;15839667;28;20478;-63
2021/03/09 23:48:14;;;;;;;1999.90;999.90;;;;;;;1.31;50.31;101432.41;15833621;28;20135;-62
2021/03/09 23:55:46;;;;;;;1999.90;999.90;;;;;;;0.84;50.51;101430.09;15825559;28;20088;-61
